CheckWX is a tool to help pilots better visualize weather data.  It is not intended as a substitute for an official pre-flight weather briefing.

04:52:36 UTC

KAIT METAR
Aitkin Municipal-Steve Kurtz Field Airport
Aitkin, Minnesota, USA
Current

17 mins ago

KAIT 260436Z AUTO 13006KT 10SM SCT038 OVC044 14/13 A2988 RMK AO2 LTG DSNT N
Observed
Aug-26 @ 04:36 UTC
Wind
  • 130° at 6 KTS
Visibility
10 SM
Flight Rules
VFR
Cloud Levels
  • Scattered at 3,800' AGL
  • Overcast at 4,400' AGL
Temperature
14°C / 57°F
Dewpoint
13°C / 55°F
Humidity
94%
Altimeter
29.88" Hg
Pressure
1011.82 hPa
Previous

37 mins ago

KAIT 260416Z AUTO 14006KT 10SM OVC044 14/13 A2989 RMK AO2
Observed
Aug-26 @ 04:16 UTC
Wind
  • 140° at 6 KTS
Visibility
10 SM
Flight Rules
VFR
Cloud Levels
  • Overcast at 4,400' AGL
Temperature
14°C / 57°F
Dewpoint
13°C / 55°F
Humidity
94%
Altimeter
29.89" Hg
Pressure
1012.22 hPa
Previous

58 mins ago

KAIT 260355Z AUTO 14006KT 10SM OVC044 14/13 A2989 RMK AO2
Observed
Aug-26 @ 03:55 UTC
Wind
  • 140° at 6 KTS
Visibility
10 SM
Flight Rules
VFR
Cloud Levels
  • Overcast at 4,400' AGL
Temperature
14°C / 57°F
Dewpoint
13°C / 55°F
Humidity
94%
Altimeter
29.89" Hg
Pressure
1012.22 hPa